Time;durP1;ratioP1;P1;durP2;ratioP2;P2;SDS_P1;SDS_P2;PMS_P1;PMS_P2;Temp;Humidity;BMP_temperature;BMP_pressure;BME280_temperature;BME280_humidity;BME280_pressure;Samples;Min_cycle;Max_cycle;Signal;HPM_P1;HPM_P2
2021/09/16 00:01:57;;;;;;;12.23;8.45;;;;;;;16.37;100.00;100600.38;4860206;29;20060;-87
2021/09/16 00:04:24;;;;;;;9.45;7.45;;;;;;;16.34;100.00;100596.97;4854148;29;20335;-87
2021/09/16 00:06:51;;;;;;;11.63;8.25;;;;;;;16.32;100.00;100598.78;4865486;29;20072;-85
2021/09/16 00:09:17;;;;;;;18.00;9.95;;;;;;;16.32;100.00;100602.31;4855770;29;20313;-85
2021/09/16 00:11:44;;;;;;;8.48;6.70;;;;;;;16.33;100.00;100604.03;4872338;29;20049;-86
2021/09/16 00:14:11;;;;;;;8.88;7.30;;;;;;;16.32;100.00;100607.59;4868736;29;20128;-85
2021/09/16 00:16:38;;;;;;;11.20;7.45;;;;;;;16.33;100.00;100608.47;4838985;29;20114;-86
2021/09/16 00:19:04;;;;;;;10.27;7.43;;;;;;;16.34;100.00;100602.25;4842585;29;20123;-86
2021/09/16 00:21:31;;;;;;;8.40;6.95;;;;;;;16.31;100.00;100600.59;4845640;29;20058;-85
2021/09/16 00:23:58;;;;;;;8.18;6.57;;;;;;;16.31;100.00;100602.34;4866980;29;20049;-84
2021/09/16 00:26:25;;;;;;;12.18;7.85;;;;;;;16.29;100.00;100605.03;4870817;29;20049;-85
2021/09/16 00:28:51;;;;;;;10.68;7.60;;;;;;;16.24;100.00;100601.69;4860322;29;20135;-88
2021/09/16 00:31:18;;;;;;;10.70;7.38;;;;;;;16.24;100.00;100606.13;4841272;29;20060;-85
2021/09/16 00:33:45;;;;;;;8.57;7.68;;;;;;;16.22;100.00;100600.91;4874059;29;20075;-86
2021/09/16 00:36:11;;;;;;;8.73;5.85;;;;;;;16.23;100.00;100601.75;4862109;29;20052;-87
2021/09/16 00:38:38;;;;;;;6.10;5.32;;;;;;;16.23;100.00;100621.13;4853154;29;20056;-86
2021/09/16 00:41:05;;;;;;;10.60;5.22;;;;;;;16.21;100.00;100622.94;4853001;29;20133;-87
2021/09/16 00:43:32;;;;;;;6.15;4.63;;;;;;;16.18;100.00;100618.63;4859902;29;20140;-86
2021/09/16 00:46:05;;;;;;;6.53;5.50;;;;;;;16.17;100.00;100616.88;4847475;29;20469;-86
2021/09/16 00:48:34;;;;;;;5.13;4.65;;;;;;;16.18;100.00;100625.69;4869738;29;20052;-87
2021/09/16 00:51:01;;;;;;;8.98;5.00;;;;;;;16.17;100.00;100624.81;4858277;29;20045;-86
2021/09/16 00:53:30;;;;;;;4.90;4.50;;;;;;;16.18;100.00;100623.91;4874842;29;20060;-86
2021/09/16 00:56:01;;;;;;;8.25;4.97;;;;;;;16.19;100.00;100632.66;4866404;29;20048;-86
2021/09/16 00:58:30;;;;;;;4.50;3.95;;;;;;;16.19;100.00;100625.63;4856224;29;20499;-85
2021/09/16 01:00:57;;;;;;;7.65;4.78;;;;;;;16.20;100.00;100626.47;4853605;29;20067;-84
2021/09/16 01:03:25;;;;;;;7.25;4.65;;;;;;;16.16;100.00;100624.88;4858438;29;20123;-86
2021/09/16 01:05:53;;;;;;;4.32;3.92;;;;;;;16.14;100.00;100617.00;4841115;29;20218;-84
2021/09/16 01:08:21;;;;;;;4.53;4.03;;;;;;;16.14;100.00;100613.47;4849290;29;20060;-86
2021/09/16 01:10:49;;;;;;;8.63;4.68;;;;;;;16.13;100.00;100620.53;4859802;29;20052;-85
2021/09/16 01:13:17;;;;;;;6.72;4.32;;;;;;;16.11;100.00;100618.88;4859735;29;20290;-87
2021/09/16 01:15:46;;;;;;;7.90;4.93;;;;;;;16.10;100.00;100617.13;4870072;29;20135;-85
2021/09/16 01:18:13;;;;;;;5.80;4.35;;;;;;;16.07;100.00;100618.09;4858660;29;20188;-85
2021/09/16 01:20:40;;;;;;;7.53;4.57;;;;;;;16.09;100.00;100616.28;4840742;29;20061;-83
2021/09/16 01:23:07;;;;;;;5.35;4.25;;;;;;;16.06;100.00;100620.78;4873627;29;20044;-83
2021/09/16 01:25:35;;;;;;;8.48;4.22;;;;;;;16.05;100.00;100625.22;4841126;29;20143;-85
2021/09/16 01:28:03;;;;;;;7.15;3.80;;;;;;;16.01;100.00;100618.31;4872146;29;20131;-86
2021/09/16 01:30:30;;;;;;;3.65;2.70;;;;;;;15.97;100.00;100625.47;4865248;29;20877;-83
2021/09/16 01:32:58;;;;;;;2.60;2.40;;;;;;;15.96;100.00;100625.53;4844196;29;22555;-85
2021/09/16 01:35:26;;;;;;;7.68;2.95;;;;;;;15.92;100.00;100622.09;4865052;29;20048;-87
2021/09/16 01:37:55;;;;;;;4.22;2.45;;;;;;;15.91;100.00;100633.56;4858804;29;20055;-86
2021/09/16 01:40:22;;;;;;;3.75;2.40;;;;;;;15.93;100.00;100633.50;4879603;29;20049;-86
2021/09/16 01:42:49;;;;;;;4.95;2.10;;;;;;;15.93;100.00;100631.75;4879503;29;20122;-85
2021/09/16 01:45:21;;;;;;;2.17;1.95;;;;;;;15.94;100.00;100633.47;4880150;29;20044;-89
2021/09/16 01:47:49;;;;;;;6.72;2.22;;;;;;;15.94;100.00;100632.63;4874178;29;20148;-86
2021/09/16 01:50:21;;;;;;;3.15;1.90;;;;;;;15.91;100.00;100633.56;4859144;29;20763;-85
2021/09/16 01:52:49;;;;;;;10.93;2.05;;;;;;;15.87;100.00;100635.44;4843019;29;20056;-87
2021/09/16 01:55:17;;;;;;;2.70;1.50;;;;;;;15.85;100.00;100634.63;4866066;29;20075;-86
2021/09/16 01:57:45;;;;;;;1.73;1.63;;;;;;;15.81;98.99;100637.41;4845993;29;20052;-87
2021/09/16 02:00:12;;;;;;;2.13;1.05;;;;;;;15.77;98.98;100641.88;4851042;29;20987;-85
2021/09/16 02:02:40;;;;;;;3.05;1.20;;;;;;;15.75;99.09;100642.84;4854152;29;20533;-84
2021/09/16 02:05:08;;;;;;;2.30;1.48;;;;;;;15.69;98.40;100649.19;4857839;29;20049;-87
2021/09/16 02:07:35;;;;;;;3.22;1.45;;;;;;;15.64;98.47;100644.03;4845964;29;20079;-85
2021/09/16 02:10:02;;;;;;;2.22;1.27;;;;;;;15.55;97.54;100649.56;4869532;29;20057;-85
2021/09/16 02:12:29;;;;;;;1.27;0.93;;;;;;;15.52;98.38;100650.53;4850812;29;20055;-85
2021/09/16 02:14:55;;;;;;;2.85;0.75;;;;;;;15.48;98.18;100648.91;4850969;29;20124;-87
2021/09/16 02:17:22;;;;;;;6.30;1.35;;;;;;;15.44;97.82;100649.06;4829236;29;21728;-84
2021/09/16 02:19:49;;;;;;;0.93;0.88;;;;;;;15.41;98.38;100651.75;4853643;29;20060;-86
2021/09/16 02:22:15;;;;;;;2.83;0.50;;;;;;;15.36;97.29;100657.19;4860356;29;20147;-86
2021/09/16 02:24:42;;;;;;;1.33;0.55;;;;;;;15.33;96.65;100657.25;4856286;29;20537;-86
2021/09/16 02:27:09;;;;;;;7.03;0.73;;;;;;;15.28;96.84;100669.72;4861701;29;20058;-86
2021/09/16 02:29:39;;;;;;;1.90;0.52;;;;;;;15.27;97.25;100663.56;4869667;29;20332;-85
2021/09/16 02:32:06;;;;;;;3.47;2.17;;;;;;;15.27;97.04;100665.38;4880040;29;20555;-87
2021/09/16 02:34:36;;;;;;;1.27;0.88;;;;;;;15.25;96.95;100669.81;4860416;29;20105;-87
2021/09/16 02:37:03;;;;;;;3.75;0.82;;;;;;;15.19;96.89;100666.44;4876301;29;20064;-87
2021/09/16 02:39:30;;;;;;;2.05;0.40;;;;;;;15.18;97.38;100666.47;4857550;29;20040;-86
2021/09/16 02:41:58;;;;;;;3.33;0.70;;;;;;;15.19;97.87;100666.44;4859351;29;20045;-85
2021/09/16 02:44:25;;;;;;;5.70;1.75;;;;;;;15.19;97.63;100674.34;4866972;29;20100;-85
2021/09/16 02:46:52;;;;;;;3.80;0.70;;;;;;;15.19;97.60;100676.13;4881475;29;20124;-88
2021/09/16 02:49:18;;;;;;;1.17;0.68;;;;;;;15.18;97.86;100677.88;4888209;29;20096;-86
2021/09/16 02:51:45;;;;;;;2.42;0.60;;;;;;;15.17;97.65;100683.19;4873601;29;20052;-86
2021/09/16 02:54:13;;;;;;;1.35;0.43;;;;;;;15.14;97.64;100680.66;4842455;29;20059;-88
2021/09/16 02:56:40;;;;;;;0.90;0.60;;;;;;;15.10;97.89;100677.25;4883257;29;20242;-86
2021/09/16 02:59:07;;;;;;;0.65;0.50;;;;;;;15.06;97.77;100683.50;4860570;29;20041;-84
2021/09/16 03:01:34;;;;;;;2.15;1.00;;;;;;;15.00;97.48;100675.75;4872377;29;20056;-88
2021/09/16 03:04:04;;;;;;;1.85;0.93;;;;;;;14.91;97.60;100681.28;4883791;29;20049;-88
2021/09/16 03:06:33;;;;;;;2.67;0.50;;;;;;;14.84;97.83;100676.16;4880924;29;20087;-87
2021/09/16 03:09:00;;;;;;;1.20;0.50;;;;;;;14.77;98.13;100668.44;4875768;29;20052;-87
2021/09/16 03:11:27;;;;;;;2.00;0.43;;;;;;;14.69;98.09;100668.66;4874973;29;20029;-88
2021/09/16 03:13:54;;;;;;;1.80;0.80;;;;;;;14.64;97.97;100674.06;4861375;29;20052;-88
2021/09/16 03:16:21;;;;;;;1.27;0.28;;;;;;;14.59;98.43;100670.63;4855945;29;20159;-85
2021/09/16 03:18:47;;;;;;;2.13;0.70;;;;;;;14.53;98.15;100678.69;4858642;29;20055;-85
2021/09/16 03:21:14;;;;;;;2.95;0.60;;;;;;;14.50;98.33;100671.72;4874007;29;20063;-85
2021/09/16 03:23:41;;;;;;;2.58;0.60;;;;;;;14.48;98.19;100676.16;4841749;29;20048;-87
2021/09/16 03:26:08;;;;;;;4.13;0.57;;;;;;;14.49;97.92;100682.31;4877426;29;20072;-83
2021/09/16 03:28:38;;;;;;;5.55;0.93;;;;;;;14.48;97.66;100678.78;4853053;29;20051;-86
2021/09/16 03:31:05;;;;;;;3.60;0.60;;;;;;;14.53;97.97;100689.22;4876584;29;20502;-89
2021/09/16 03:33:38;;;;;;;1.55;0.63;;;;;;;14.60;97.43;100682.03;4860173;29;20049;-86
2021/09/16 03:36:05;;;;;;;0.98;0.38;;;;;;;14.63;96.77;100679.34;4873964;29;20053;-86
2021/09/16 03:38:34;;;;;;;4.13;1.60;;;;;;;14.68;96.98;100685.38;4870286;29;20423;-85
2021/09/16 03:41:01;;;;;;;3.92;0.30;;;;;;;14.72;96.43;100689.66;4862161;29;20056;-86
2021/09/16 03:43:28;;;;;;;4.70;0.90;;;;;;;14.71;95.69;100685.28;4869717;29;20045;-87
2021/09/16 03:45:55;;;;;;;1.02;0.50;;;;;;;14.69;95.52;100692.34;4859269;29;20074;-89
2021/09/16 03:48:22;;;;;;;1.10;0.45;;;;;;;14.67;95.26;100694.19;4861994;29;20106;-87
2021/09/16 03:50:48;;;;;;;2.70;0.88;;;;;;;14.60;95.34;100693.44;4865875;29;20040;-87
2021/09/16 03:53:16;;;;;;;1.65;0.75;;;;;;;14.56;94.30;100687.38;4862135;29;20053;-86
2021/09/16 03:55:43;;;;;;;2.83;0.70;;;;;;;14.56;94.05;100687.38;4869443;29;20049;-85
2021/09/16 03:58:10;;;;;;;2.05;0.32;;;;;;;14.61;92.80;100687.25;4860105;29;20092;-87
2021/09/16 04:00:37;;;;;;;2.20;0.22;;;;;;;14.70;91.22;100689.69;4865143;29;20052;-87
2021/09/16 04:03:12;;;;;;;4.22;0.30;;;;;;;14.81;88.08;100688.53;4847106;29;20053;-88
2021/09/16 04:05:42;;;;;;;0.43;0.30;;;;;;;14.86;86.90;100686.66;4864738;29;20144;-88
2021/09/16 04:08:09;;;;;;;1.23;0.32;;;;;;;14.92;86.41;100681.22;4865820;29;20048;-87
2021/09/16 04:10:36;;;;;;;0.85;0.20;;;;;;;14.97;84.75;100687.25;4842720;29;20514;-89
2021/09/16 04:13:03;;;;;;;0.43;0.20;;;;;;;15.00;84.16;100689.78;4871681;29;20072;-89
2021/09/16 04:15:30;;;;;;;3.13;0.80;;;;;;;15.04;82.90;100688.81;4861907;29;20056;-86
2021/09/16 04:17:59;;;;;;;1.42;0.28;;;;;;;15.08;82.84;100699.28;4857599;29;20570;-87
2021/09/16 04:20:26;;;;;;;1.15;0.28;;;;;;;15.11;82.39;100688.63;4848262;29;20187;-87
2021/09/16 04:22:53;;;;;;;1.83;0.30;;;;;;;15.13;82.04;100684.19;4864822;29;20269;-87
2021/09/16 04:25:22;;;;;;;2.38;0.22;;;;;;;15.15;82.88;100688.53;4868962;29;20048;-87
2021/09/16 04:27:50;;;;;;;1.65;0.20;;;;;;;15.14;82.40;100688.56;4860307;29;20136;-86
2021/09/16 04:30:17;;;;;;;1.10;0.30;;;;;;;15.14;82.42;100692.06;4862179;29;20056;-87
2021/09/16 04:32:44;;;;;;;1.15;0.28;;;;;;;15.12;82.15;100685.97;4844347;29;20052;-87
2021/09/16 04:35:11;;;;;;;0.43;0.10;;;;;;;15.11;82.16;100688.63;4877661;29;20076;-87
2021/09/16 04:37:43;;;;;;;0.40;0.10;;;;;;;15.11;82.21;100696.53;4865993;29;20041;-85
2021/09/16 04:43:13;;;;;;;1.17;0.80;;;;;;;15.07;81.22;100697.53;4895534;29;20113;-87
2021/09/16 04:45:40;;;;;;;4.57;0.28;;;;;;;15.04;81.86;100703.75;4858794;29;20700;-87
2021/09/16 04:48:09;;;;;;;0.77;0.20;;;;;;;15.03;82.09;100702.91;4874373;29;20096;-88
2021/09/16 04:50:36;;;;;;;2.17;0.20;;;;;;;15.01;82.52;100702.06;4858996;29;20048;-85
2021/09/16 04:53:03;;;;;;;0.77;0.20;;;;;;;15.01;81.69;100696.78;4845502;29;20049;-86
2021/09/16 04:55:33;;;;;;;2.08;0.30;;;;;;;15.01;82.24;100701.22;4858590;29;20178;-86
2021/09/16 04:57:59;;;;;;;0.93;0.40;;;;;;;14.99;81.51;100689.84;4852245;29;20045;-87
2021/09/16 05:00:26;;;;;;;3.67;0.20;;;;;;;15.00;82.45;100695.06;4857492;29;20456;-86
2021/09/16 05:02:53;;;;;;;0.20;0.10;;;;;;;15.01;80.88;100699.44;4868622;29;20055;-85
2021/09/16 05:05:20;;;;;;;2.17;0.28;;;;;;;15.02;81.77;100698.53;4869199;29;20508;-86
2021/09/16 05:07:51;;;;;;;2.90;0.60;;;;;;;15.05;81.98;100705.50;4841394;29;20049;-85
2021/09/16 05:10:18;;;;;;;2.65;0.52;;;;;;;15.04;82.06;100706.41;4837295;29;22053;-87
2021/09/16 05:12:45;;;;;;;0.75;0.20;;;;;;;15.04;82.33;100704.66;4844524;29;20040;-86
2021/09/16 05:15:12;;;;;;;3.40;0.75;;;;;;;15.03;82.24;100702.03;4845394;29;20072;-90
2021/09/16 05:17:38;;;;;;;2.33;0.20;;;;;;;15.03;82.17;100705.53;4847563;29;20048;-87
2021/09/16 05:20:06;;;;;;;0.60;0.30;;;;;;;15.00;82.00;100702.97;4851287;29;20052;-86
2021/09/16 05:22:34;;;;;;;0.30;0.17;;;;;;;15.03;82.44;100710.81;4857188;29;20055;-85
2021/09/16 05:25:02;;;;;;;2.40;0.32;;;;;;;15.04;82.18;100712.56;4843359;29;20344;-85
2021/09/16 05:27:28;;;;;;;1.80;0.20;;;;;;;15.06;82.13;100704.59;4853601;29;20547;-86
2021/09/16 05:29:55;;;;;;;1.25;0.38;;;;;;;15.09;82.19;100706.28;4844163;29;20053;-88
2021/09/16 05:32:27;;;;;;;0.40;0.30;;;;;;;15.08;82.31;100705.41;4834425;29;20080;-86
2021/09/16 05:34:57;;;;;;;1.38;0.32;;;;;;;15.08;82.48;100710.69;4854837;29;20296;-86
2021/09/16 05:37:26;;;;;;;2.40;0.40;;;;;;;15.09;82.57;100709.78;4827627;29;20076;-87
2021/09/16 05:39:53;;;;;;;0.38;0.28;;;;;;;15.07;83.06;100702.81;4851976;29;20068;-85
2021/09/16 05:42:20;;;;;;;3.33;0.43;;;;;;;15.10;83.63;100716.78;4824895;29;20061;-86
2021/09/16 05:44:46;;;;;;;5.03;0.93;;;;;;;15.08;83.91;100713.31;4850169;29;20052;-86
2021/09/16 05:47:13;;;;;;;1.25;0.20;;;;;;;15.07;83.85;100708.09;4836811;29;20069;-86
2021/09/16 05:49:39;;;;;;;2.10;0.45;;;;;;;15.09;84.36;100722.09;4831627;29;20056;-86
2021/09/16 05:52:09;;;;;;;2.05;0.50;;;;;;;15.08;84.45;100721.22;4850201;29;20053;-85
2021/09/16 05:54:36;;;;;;;1.15;0.55;;;;;;;15.09;84.63;100714.19;4839731;29;20056;-85
2021/09/16 05:57:03;;;;;;;1.25;0.70;;;;;;;15.09;84.61;100720.31;4832514;29;20065;-87
2021/09/16 05:59:30;;;;;;;1.75;0.47;;;;;;;15.12;84.85;100717.63;4825551;29;20054;-86
2021/09/16 06:01:57;;;;;;;2.90;0.63;;;;;;;15.15;84.77;100717.53;4832768;29;20049;-86
2021/09/16 06:04:25;;;;;;;2.67;0.40;;;;;;;15.18;84.44;100713.94;4837950;29;20070;-87
2021/09/16 06:06:52;;;;;;;2.33;0.52;;;;;;;15.22;84.67;100716.44;4856658;29;20064;-87
2021/09/16 06:09:21;;;;;;;1.38;0.50;;;;;;;15.24;85.00;100721.69;4853726;29;20060;-84
2021/09/16 06:11:48;;;;;;;1.95;0.30;;;;;;;15.28;84.70;100722.44;4863112;29;20056;-86
2021/09/16 06:14:15;;;;;;;1.02;0.40;;;;;;;15.29;84.54;100719.81;4877964;29;20052;-89
2021/09/16 06:16:42;;;;;;;3.17;0.30;;;;;;;15.33;84.43;100723.19;4878296;29;20067;-88
2021/09/16 06:19:09;;;;;;;4.57;0.50;;;;;;;15.35;84.46;100724.88;4862508;29;20044;-87
2021/09/16 06:21:36;;;;;;;2.15;0.40;;;;;;;15.32;83.93;100721.50;4889500;29;20424;-86
2021/09/16 06:24:05;;;;;;;1.95;0.35;;;;;;;15.32;84.32;100726.75;4869421;29;20049;-86
2021/09/16 06:26:32;;;;;;;4.20;0.65;;;;;;;15.37;84.27;100728.34;4843814;29;20132;-87
2021/09/16 06:28:59;;;;;;;1.80;0.30;;;;;;;15.39;84.33;100729.16;4844563;29;20060;-87
2021/09/16 06:31:29;;;;;;;2.03;0.40;;;;;;;15.42;83.80;100730.00;4857076;29;20075;-86
2021/09/16 06:33:56;;;;;;;2.05;0.45;;;;;;;15.42;83.81;100735.28;4859836;29;20044;-85
2021/09/16 06:36:22;;;;;;;3.55;0.60;;;;;;;15.35;84.23;100738.06;4861840;29;20431;-85
2021/09/16 06:38:49;;;;;;;1.40;0.75;;;;;;;15.36;84.30;100739.81;4852841;29;20048;-87
2021/09/16 06:41:17;;;;;;;2.63;0.70;;;;;;;15.41;84.45;100742.34;4875082;29;20078;-86
2021/09/16 06:43:44;;;;;;;3.88;0.73;;;;;;;15.39;83.45;100738.84;4871317;29;21102;-85
2021/09/16 06:46:11;;;;;;;0.68;0.40;;;;;;;15.30;84.36;100733.84;4874702;29;20057;-86
2021/09/16 06:48:40;;;;;;;2.85;0.40;;;;;;;15.35;84.24;100734.56;4842087;29;20045;-85
2021/09/16 06:51:07;;;;;;;2.95;0.30;;;;;;;15.54;83.95;100745.50;4871248;29;20155;-86
2021/09/16 06:53:34;;;;;;;4.80;0.47;;;;;;;15.77;82.42;100730.75;4863611;29;20072;-87
2021/09/16 06:56:04;;;;;;;2.03;0.60;;;;;;;15.92;82.22;100740.03;4862609;29;20064;-86
2021/09/16 06:58:30;;;;;;;2.08;0.50;;;;;;;16.07;81.20;100736.91;4870433;29;20051;-87
2021/09/16 07:00:57;;;;;;;4.40;1.17;;;;;;;16.10;80.95;100739.50;4852419;29;20080;-89
2021/09/16 07:03:25;;;;;;;3.80;0.77;;;;;;;16.13;80.76;100744.66;4865164;29;20044;-87
2021/09/16 07:05:52;;;;;;;4.57;1.05;;;;;;;16.38;79.09;100739.47;4858359;29;20083;-86
2021/09/16 07:08:18;;;;;;;1.40;1.30;;;;;;;16.67;77.99;100747.38;4853463;29;20060;-88
2021/09/16 07:11:24;;;;;;;2.35;0.82;;;;;;;16.77;76.71;100747.94;4863469;29;20051;-86
2021/09/16 07:13:50;;;;;;;1.65;0.82;;;;;;;16.82;75.85;100746.88;4863691;29;20471;-86
2021/09/16 07:16:18;;;;;;;2.80;0.52;;;;;;;16.85;76.63;100756.47;4876985;29;20057;-87
2021/09/16 07:18:45;;;;;;;3.85;0.47;;;;;;;16.91;76.30;100750.16;4867717;29;20037;-86
2021/09/16 07:21:11;;;;;;;2.78;0.47;;;;;;;16.94;75.62;100750.91;4856776;29;20045;-88
2021/09/16 07:23:42;;;;;;;1.95;0.77;;;;;;;16.93;75.24;100748.31;4874494;29;20051;-87
2021/09/16 07:26:09;;;;;;;0.98;0.60;;;;;;;16.81;75.75;100746.94;4890746;29;20053;-88
2021/09/16 07:28:37;;;;;;;3.42;0.65;;;;;;;16.78;75.62;100753.19;4878376;29;20057;-89
2021/09/16 07:31:06;;;;;;;1.85;0.55;;;;;;;16.72;76.83;100745.44;4892636;29;20059;-88
2021/09/16 07:33:34;;;;;;;2.33;0.50;;;;;;;16.61;76.09;100752.84;4889893;29;20518;-86
2021/09/16 07:36:01;;;;;;;2.25;0.50;;;;;;;16.51;77.20;100754.94;4862214;29;20470;-85
2021/09/16 07:38:28;;;;;;;0.80;0.57;;;;;;;16.53;77.29;100755.75;4881249;29;20044;-86
2021/09/16 07:40:55;;;;;;;3.83;0.63;;;;;;;16.51;77.45;100755.78;4866152;29;20048;-87
2021/09/16 07:43:22;;;;;;;1.17;0.60;;;;;;;16.63;77.49;100758.97;4842699;29;20100;-87
2021/09/16 07:45:49;;;;;;;2.25;0.73;;;;;;;16.64;76.68;100752.78;4879216;29;20579;-86
2021/09/16 07:48:16;;;;;;;3.22;0.65;;;;;;;16.58;76.74;100756.47;4845388;29;20467;-88
2021/09/16 07:50:46;;;;;;;0.63;0.40;;;;;;;16.60;76.99;100764.38;4867975;29;20057;-85
2021/09/16 07:55:48;;;;;;;0.82;0.30;;;;;;;16.70;77.00;100763.16;4911966;29;20060;-83
2021/09/16 07:58:15;;;;;;;2.28;0.80;;;;;;;16.71;77.26;100762.22;4902513;29;20163;-85
2021/09/16 08:00:42;;;;;;;2.83;0.60;;;;;;;16.68;77.82;100768.47;4894016;29;20139;-86
2021/09/16 08:03:09;;;;;;;0.88;0.52;;;;;;;16.48;79.16;100758.56;4893849;29;20059;-85
2021/09/16 08:05:36;;;;;;;2.88;0.70;;;;;;;16.28;81.01;100775.03;4901755;29;20123;-83
2021/09/16 08:08:02;;;;;;;2.30;0.80;;;;;;;16.08;82.53;100772.13;4903988;29;20055;-84
2021/09/16 08:10:29;;;;;;;9.10;0.98;;;;;;;15.77;84.94;100775.63;4902787;29;20060;-83
2021/09/16 08:12:56;;;;;;;2.58;0.70;;;;;;;15.69;85.15;100781.13;4880682;29;20055;-83
2021/09/16 08:15:22;;;;;;;1.23;0.95;;;;;;;15.67;85.95;100778.53;4915435;29;20067;-83
2021/09/16 08:17:49;;;;;;;1.00;0.50;;;;;;;15.65;86.89;100779.47;4884279;29;20075;-83
2021/09/16 08:20:17;;;;;;;1.80;0.70;;;;;;;15.79;86.09;100787.03;4918767;29;20043;-83
2021/09/16 08:22:45;;;;;;;3.95;0.98;;;;;;;15.85;86.61;100786.84;4887757;29;20863;-82
2021/09/16 08:25:15;;;;;;;5.60;0.80;;;;;;;15.83;87.10;100789.53;4924980;28;20147;-83
2021/09/16 08:27:43;;;;;;;4.32;0.80;;;;;;;15.77;89.51;100799.38;4888375;29;20044;-81
2021/09/16 08:30:12;;;;;;;4.70;0.70;;;;;;;15.73;89.28;100784.56;4898651;29;20056;-85
2021/09/16 08:32:39;;;;;;;2.15;0.55;;;;;;;15.72;89.52;100786.31;4876828;29;20040;-82
2021/09/16 08:35:08;;;;;;;1.55;0.43;;;;;;;15.81;89.38;100793.13;4918461;29;20051;-83
2021/09/16 08:37:35;;;;;;;3.08;1.60;;;;;;;15.89;89.44;100777.94;4901638;29;20052;-87
2021/09/16 08:40:02;;;;;;;1.27;0.73;;;;;;;16.00;88.72;100782.91;4900297;29;20048;-84
2021/09/16 08:42:29;;;;;;;3.70;0.88;;;;;;;16.17;87.66;100782.41;4898492;29;20052;-83
2021/09/16 08:44:56;;;;;;;1.90;0.70;;;;;;;16.26;86.90;100782.13;4900961;29;20060;-87
2021/09/16 08:47:24;;;;;;;1.50;0.90;;;;;;;16.28;86.81;100771.50;4883647;29;20048;-83
2021/09/16 08:49:53;;;;;;;0.90;0.73;;;;;;;16.23;86.96;100787.53;4903292;29;20048;-82
2021/09/16 08:52:20;;;;;;;2.30;1.25;;;;;;;16.22;86.90;100785.78;4924234;28;20138;-84
2021/09/16 08:54:48;;;;;;;0.85;0.63;;;;;;;16.30;86.43;100789.03;4903597;28;20064;-85
2021/09/16 08:57:17;;;;;;;0.63;0.50;;;;;;;16.36;86.29;100798.56;4901705;28;20047;-87
2021/09/16 08:59:47;;;;;;;0.68;0.68;;;;;;;16.37;85.93;100793.25;4896257;29;20526;-84
2021/09/16 09:02:14;;;;;;;1.52;0.85;;;;;;;16.35;85.79;100802.97;4922207;28;20129;-84
2021/09/16 09:04:42;;;;;;;4.32;2.08;;;;;;;16.28;86.29;100805.84;4937776;28;20055;-86
2021/09/16 09:07:09;;;;;;;1.85;1.08;;;;;;;16.25;86.25;100804.16;4922576;28;20713;-82
2021/09/16 09:09:35;;;;;;;1.85;1.10;;;;;;;16.19;86.87;100807.88;4919055;28;20051;-81
2021/09/16 09:12:13;;;;;;;2.50;1.30;;;;;;;16.19;86.83;100805.22;4907948;28;20948;-87
2021/09/16 09:14:47;;;;;;;2.00;1.20;;;;;;;16.20;87.12;100806.97;4910595;29;20044;-82
2021/09/16 09:17:24;;;;;;;1.42;1.33;;;;;;;16.18;86.75;100805.28;4907230;28;20047;-83
2021/09/16 09:19:55;;;;;;;4.88;0.80;;;;;;;16.17;86.98;100814.13;4918566;28;20055;-83
2021/09/16 09:22:35;;;;;;;3.33;1.58;;;;;;;16.15;87.25;100813.28;4924556;28;20054;-87
2021/09/16 09:25:18;;;;;;;3.85;2.33;;;;;;;16.19;86.97;100812.28;4885521;29;20774;-82
2021/09/16 09:27:54;;;;;;;3.78;1.50;;;;;;;16.27;86.63;100812.94;4929114;28;20057;-85
2021/09/16 09:30:24;;;;;;;4.15;1.35;;;;;;;16.24;87.03;100813.00;4939517;28;20531;-82
2021/09/16 09:33:07;;;;;;;3.13;2.08;;;;;;;16.27;86.85;100823.50;4933831;28;20111;-83
2021/09/16 09:35:41;;;;;;;7.20;1.88;;;;;;;16.37;86.59;100821.41;4919342;29;20055;-84
2021/09/16 09:38:25;;;;;;;2.15;1.95;;;;;;;16.49;85.94;100821.06;4923897;28;20054;-82
2021/09/16 09:40:56;;;;;;;2.30;1.92;;;;;;;16.61;85.68;100821.56;4904738;28;20044;-82
2021/09/16 09:43:37;;;;;;;3.40;1.92;;;;;;;16.79;84.64;100818.38;4924380;28;20059;-85
2021/09/16 09:46:15;;;;;;;4.90;1.63;;;;;;;17.30;82.63;100823.75;4909552;28;20095;-82
2021/09/16 09:49:05;;;;;;;4.55;1.85;;;;;;;17.88;79.68;100812.88;4921936;28;20118;-83
2021/09/16 09:51:49;;;;;;;2.13;1.58;;;;;;;18.29;77.33;100802.56;4905030;29;20419;-84
2021/09/16 09:54:50;;;;;;;3.97;2.22;;;;;;;18.38;76.20;100805.75;4922682;28;20083;-84
2021/09/16 09:57:19;;;;;;;2.75;1.63;;;;;;;18.24;76.05;100803.63;4884440;29;20506;-82
2021/09/16 10:00:15;;;;;;;4.95;1.63;;;;;;;18.19;75.80;100799.38;4936744;28;20546;-83
2021/09/16 10:02:52;;;;;;;3.85;2.03;;;;;;;18.26;75.40;100805.31;4922591;29;20048;-85
2021/09/16 10:05:31;;;;;;;4.53;1.77;;;;;;;18.53;72.89;100810.47;4892852;29;20487;-83
2021/09/16 10:08:14;;;;;;;2.92;1.55;;;;;;;18.88;71.94;100813.47;4909033;29;20040;-86
2021/09/16 10:10:53;;;;;;;5.63;1.90;;;;;;;19.96;68.39;100814.19;4884381;29;20081;-83
2021/09/16 10:13:20;;;;;;;1.80;1.70;;;;;;;21.32;63.44;100814.78;4907185;29;20059;-82
2021/09/16 10:15:49;;;;;;;3.03;1.77;;;;;;;22.24;58.40;100816.16;4873784;29;20047;-86
2021/09/16 10:18:15;;;;;;;1.83;1.33;;;;;;;23.21;56.35;100818.69;4910976;29;20056;-82
2021/09/16 10:20:46;;;;;;;2.10;1.55;;;;;;;23.66;55.28;100810.63;4931200;28;20052;-86
2021/09/16 10:23:15;;;;;;;2.55;1.63;;;;;;;24.10;53.08;100811.53;4907994;29;20051;-84
2021/09/16 10:25:52;;;;;;;1.35;1.23;;;;;;;24.00;54.13;100815.72;4920646;29;20071;-87
2021/09/16 10:28:21;;;;;;;4.75;2.08;;;;;;;24.48;53.12;100810.00;4900583;29;20074;-85
2021/09/16 10:30:54;;;;;;;2.60;1.50;;;;;;;24.36;50.53;100806.31;4923869;29;20075;-87
2021/09/16 10:33:23;;;;;;;2.20;1.25;;;;;;;23.75;53.47;100815.44;4884980;29;20056;-82
2021/09/16 10:35:59;;;;;;;4.80;1.58;;;;;;;22.71;53.85;100817.13;4921206;29;20043;-84
2021/09/16 10:38:47;;;;;;;1.58;1.23;;;;;;;21.74;57.63;100816.16;4920101;29;20052;-87
2021/09/16 10:41:29;;;;;;;2.72;1.70;;;;;;;20.59;61.61;100841.44;4919115;29;20139;-82
2021/09/16 10:43:59;;;;;;;2.50;1.77;;;;;;;20.21;62.96;100838.75;4906855;29;20127;-82
2021/09/16 10:46:46;;;;;;;2.30;2.00;;;;;;;19.99;63.76;100829.13;4898231;29;20131;-81
2021/09/16 10:49:35;;;;;;;2.25;1.63;;;;;;;19.93;64.41;100840.03;4886172;29;20048;-84
2021/09/16 10:52:11;;;;;;;5.80;1.50;;;;;;;20.01;64.31;100843.19;4917514;29;20111;-86
2021/09/16 10:54:57;;;;;;;4.32;1.92;;;;;;;19.72;64.79;100849.78;4911972;28;20229;-83
2021/09/16 10:57:30;;;;;;;5.13;2.25;;;;;;;19.19;66.89;100846.72;4911436;28;20063;-86
2021/09/16 11:00:01;;;;;;;4.10;2.22;;;;;;;19.05;67.95;100839.34;4940326;28;20141;-83
2021/09/16 11:02:39;;;;;;;3.47;2.40;;;;;;;19.16;67.75;100837.13;4919132;28;20409;-86
2021/09/16 11:05:22;;;;;;;3.83;1.70;;;;;;;19.01;68.02;100832.44;4942083;28;20055;-83
2021/09/16 11:07:55;;;;;;;2.05;1.77;;;;;;;19.07;68.14;100833.97;4902563;28;20165;-81
2021/09/16 11:10:22;;;;;;;;;;;;;;;19.09;68.50;100824.16;4935706;28;20138;-83
2021/09/16 11:12:56;;;;;;;3.90;2.20;;;;;;;19.16;68.24;100837.13;4941750;28;19926;-83
2021/09/16 11:15:40;;;;;;;6.38;2.35;;;;;;;18.93;69.02;100840.72;4894200;28;20079;-86
2021/09/16 11:18:16;;;;;;;3.63;2.03;;;;;;;18.72;69.69;100831.81;4923173;28;20039;-83
2021/09/16 11:20:46;;;;;;;3.42;2.22;;;;;;;18.53;70.85;100829.00;4899627;28;20094;-84
2021/09/16 11:23:15;;;;;;;4.97;2.30;;;;;;;18.44;71.69;100838.19;4920686;28;20043;-82
2021/09/16 11:25:49;;;;;;;6.50;2.70;;;;;;;18.29;72.25;100841.41;4915798;28;20073;-83
2021/09/16 11:28:17;;;;;;;2.47;1.88;;;;;;;18.22;72.61;100837.28;4923490;28;20040;-83
2021/09/16 11:30:47;;;;;;;7.47;1.63;;;;;;;18.10;72.95;100847.44;4900940;28;20043;-81
2021/09/16 11:33:18;;;;;;;3.28;1.90;;;;;;;18.11;73.35;100840.34;4922148;28;20067;-83
2021/09/16 11:35:45;;;;;;;6.60;2.33;;;;;;;18.04;73.62;100837.03;4903522;28;20055;-82
2021/09/16 11:38:13;;;;;;;5.38;1.95;;;;;;;17.89;74.91;100833.16;4937026;28;20150;-80
2021/09/16 11:40:44;;;;;;;2.58;1.85;;;;;;;17.82;75.29;100848.41;4938840;28;20407;-84